Time;durP1;ratioP1;P1;durP2;ratioP2;P2;SDS_P1;SDS_P2;PMS_P1;PMS_P2;Temp;Humidity;BMP_temperature;BMP_pressure;BME280_temperature;BME280_humidity;BME280_pressure;Samples;Min_cycle;Max_cycle;Signal;HPM_P1;HPM_P2
2022/11/24 00:01:14;;;;;;;6.53;1.92;;;5.90;99.90;;;4.33;100.00;99611.56;4821029;29;20121;-76
2022/11/24 00:03:40;;;;;;;8.38;2.30;;;5.90;99.90;;;4.21;100.00;99600.50;4820910;29;20057;-76
2022/11/24 00:06:09;;;;;;;7.45;1.92;;;5.90;99.90;;;4.24;100.00;99620.84;4821148;29;20478;-76
2022/11/24 00:08:37;;;;;;;7.22;1.75;;;5.90;99.90;;;4.25;100.00;99619.84;4826054;29;20049;-77
2022/11/24 00:11:16;;;;;;;5.45;1.90;;;5.90;99.90;;;4.23;100.00;99625.41;4821127;29;20038;-76
2022/11/24 00:13:42;;;;;;;5.43;2.25;;;5.80;99.90;;;4.20;100.00;99624.97;4820866;29;20082;-77
2022/11/24 00:16:17;;;;;;;5.57;2.40;;;5.80;99.90;;;4.18;100.00;99634.09;4821309;29;20038;-76
2022/11/24 00:18:46;;;;;;;6.10;2.30;;;5.80;99.90;;;4.14;100.00;99626.63;4820933;29;20038;-75
2022/11/24 00:21:14;;;;;;;5.35;2.00;;;5.80;99.90;;;4.13;100.00;99628.47;4820906;29;20073;-76
2022/11/24 00:23:40;;;;;;;4.22;1.90;;;5.80;99.90;;;4.20;100.00;99630.38;4818822;29;20407;-76
2022/11/24 00:26:12;;;;;;;5.40;2.08;;;5.80;99.90;;;4.15;100.00;99629.13;4820617;29;20038;-76
2022/11/24 00:28:40;;;;;;;4.80;2.40;;;5.80;99.90;;;4.18;100.00;99627.88;4820507;29;20570;-76
2022/11/24 00:31:18;;;;;;;5.20;1.85;;;5.80;99.90;;;4.10;100.00;99639.69;4821154;29;20387;-76
2022/11/24 00:33:45;;;;;;;6.83;2.03;;;5.70;99.90;;;4.11;100.00;99640.50;4820495;29;20063;-77
2022/11/24 00:36:12;;;;;;;6.72;2.05;;;5.70;99.90;;;4.12;100.00;99650.28;4820802;29;20054;-77
2022/11/24 00:38:38;;;;;;;7.00;2.40;;;5.70;99.90;;;4.11;100.00;99644.03;4820747;29;20082;-76
2022/11/24 00:41:04;;;;;;;6.75;1.92;;;5.70;99.90;;;4.10;100.00;99634.28;4820897;29;20506;-76
2022/11/24 00:43:30;;;;;;;7.10;2.00;;;5.70;99.90;;;4.14;100.00;99643.66;4820711;29;20538;-76
2022/11/24 00:45:56;;;;;;;5.18;2.00;;;5.80;99.90;;;4.20;100.00;99651.97;4820634;29;20042;-76
2022/11/24 00:48:22;;;;;;;4.93;2.20;;;5.80;99.90;;;4.28;100.00;99655.34;4831955;29;20030;-76
2022/11/24 00:51:00;;;;;;;6.07;2.13;;;5.90;99.90;;;4.37;100.00;99658.72;4820516;29;20030;-76
2022/11/24 00:53:27;;;;;;;5.95;2.28;;;6.00;99.90;;;4.42;100.00;99666.22;4820020;29;20551;-76
2022/11/24 00:55:54;;;;;;;5.68;1.95;;;6.00;99.90;;;4.42;100.00;99663.53;4820349;29;20050;-76
2022/11/24 00:58:21;;;;;;;7.70;2.20;;;6.10;99.90;;;4.43;100.00;99670.59;4820667;29;20091;-77
2022/11/24 01:00:47;;;;;;;6.72;2.35;;;6.00;99.90;;;4.34;100.00;99660.97;4820240;29;20113;-77
2022/11/24 01:03:15;;;;;;;5.18;2.13;;;6.00;99.90;;;4.36;100.00;99672.41;4820208;29;20041;-76
2022/11/24 01:05:41;;;;;;;6.65;1.85;;;6.00;99.90;;;4.29;100.00;99667.00;4820299;29;20120;-76
2022/11/24 01:08:08;;;;;;;5.47;1.98;;;5.90;99.90;;;4.24;100.00;99666.75;4820208;29;20673;-76
2022/11/24 01:10:34;;;;;;;7.13;2.45;;;5.90;99.90;;;4.25;100.00;99661.16;4820480;29;20543;-76
2022/11/24 01:13:00;;;;;;;7.03;2.30;;;5.90;99.90;;;4.23;100.00;99670.47;4834019;29;20042;-76
2022/11/24 01:15:28;;;;;;;7.00;2.50;;;5.90;99.90;;;4.17;100.00;99670.25;4820157;29;20042;-77
2022/11/24 01:17:55;;;;;;;3.70;1.98;;;5.90;99.90;;;4.13;100.00;99673.56;4819991;29;20066;-78
2022/11/24 01:20:21;;;;;;;6.15;2.13;;;5.80;99.90;;;4.09;100.00;99667.72;4820345;29;20486;-77
2022/11/24 01:22:48;;;;;;;7.35;2.25;;;5.80;99.90;;;4.15;100.00;99680.41;4820027;29;20030;-76
2022/11/24 01:25:14;;;;;;;5.30;2.33;;;5.80;99.90;;;4.28;100.00;99681.53;4820326;29;20058;-77
2022/11/24 01:27:41;;;;;;;6.47;2.42;;;5.90;99.90;;;4.29;100.00;99677.81;4820507;29;20034;-78
2022/11/24 01:30:07;;;;;;;6.43;2.22;;;5.90;99.90;;;4.37;100.00;99685.72;4819955;29;20113;-75
2022/11/24 01:32:35;;;;;;;9.07;2.60;;;6.00;99.90;;;4.39;100.00;99680.97;4819679;29;20470;-76
2022/11/24 01:35:02;;;;;;;6.30;2.70;;;6.00;99.90;;;4.44;100.00;99686.59;4819903;29;20672;-76
2022/11/24 01:37:28;;;;;;;6.00;2.70;;;6.00;99.90;;;4.46;100.00;99683.69;4819400;29;20410;-76
2022/11/24 01:39:54;;;;;;;10.63;2.75;;;6.00;99.90;;;4.39;100.00;99683.66;4819496;29;20078;-76
2022/11/24 01:42:20;;;;;;;5.53;2.30;;;6.00;99.90;;;4.35;100.00;99676.16;4819767;29;20042;-76
2022/11/24 01:45:10;;;;;;;5.90;2.30;;;6.00;99.90;;;4.38;100.00;99678.47;4819350;29;20390;-76
2022/11/24 01:47:39;;;;;;;6.43;3.13;;;6.00;99.90;;;4.37;100.00;99688.44;4819229;29;20053;-76
2022/11/24 01:50:15;;;;;;;8.18;2.85;;;6.00;99.90;;;4.35;100.00;99682.41;4819681;29;20382;-77
2022/11/24 01:52:51;;;;;;;6.60;2.40;;;6.00;99.90;;;4.40;100.00;99685.31;4819283;29;20107;-77
2022/11/24 01:55:24;;;;;;;6.40;2.72;;;6.10;99.90;;;4.40;100.00;99693.44;4819659;29;20075;-78
2022/11/24 01:58:09;;;;;;;6.47;2.30;;;6.10;99.90;;;4.44;100.00;99702.78;4819449;29;20045;-76
2022/11/24 02:00:39;;;;;;;8.90;2.90;;;6.10;99.90;;;4.50;100.00;99708.44;4819505;29;20091;-76
2022/11/24 02:03:06;;;;;;;8.68;3.22;;;6.10;99.90;;;4.51;100.00;99702.84;4824693;29;20149;-76
2022/11/24 02:05:54;;;;;;;6.40;2.60;;;6.20;99.90;;;4.57;100.00;99701.22;4819268;29;20046;-76
2022/11/24 02:08:48;;;;;;;7.20;2.90;;;6.20;99.90;;;4.73;100.00;99719.75;4819031;29;20066;-75
2022/11/24 02:11:14;;;;;;;9.50;2.97;;;6.30;99.90;;;4.80;100.00;99706.28;4819301;29;20452;-77
2022/11/24 02:13:42;;;;;;;9.43;3.15;;;6.40;99.90;;;4.87;100.00;99695.50;4823259;29;20099;-77
2022/11/24 02:16:11;;;;;;;7.43;3.10;;;6.50;99.90;;;4.98;100.00;99700.31;4819207;29;20038;-77
2022/11/24 02:18:42;;;;;;;9.07;2.95;;;6.60;99.90;;;4.94;100.00;99700.94;4821632;29;20026;-77
2022/11/24 02:21:11;;;;;;;9.18;2.85;;;6.60;99.90;;;4.88;100.00;99708.81;4819375;29;20054;-77
2022/11/24 02:24:05;;;;;;;6.70;2.60;;;6.60;99.90;;;4.88;100.00;99716.09;4819045;29;20030;-77
2022/11/24 02:26:47;;;;;;;9.68;2.92;;;6.50;99.90;;;4.78;100.00;99708.34;4818650;29;20534;-77
2022/11/24 02:29:14;;;;;;;9.90;3.05;;;6.50;99.90;;;4.74;100.00;99718.72;4819550;29;20034;-76
2022/11/24 02:32:03;;;;;;;6.47;3.00;;;6.40;99.90;;;4.68;100.00;99706.03;4819525;29;20117;-76
2022/11/24 02:34:29;;;;;;;9.45;3.13;;;6.40;99.90;;;4.68;100.00;99716.03;4819185;29;20045;-77
2022/11/24 02:36:55;;;;;;;12.40;3.70;;;6.30;99.90;;;4.61;100.00;99710.56;4819052;29;20058;-76
2022/11/24 02:39:21;;;;;;;6.03;3.08;;;6.30;99.90;;;4.62;100.00;99714.94;4832853;29;20027;-77
2022/11/24 02:41:57;;;;;;;7.47;3.50;;;6.30;99.90;;;4.61;100.00;99724.09;4819216;29;20053;-77
2022/11/24 02:44:29;;;;;;;11.00;3.63;;;6.20;99.90;;;4.59;100.00;99718.88;4819511;29;20070;-77
2022/11/24 02:47:07;;;;;;;9.75;3.42;;;6.20;99.90;;;4.47;100.00;99712.38;4819309;29;20042;-77
2022/11/24 02:49:33;;;;;;;7.65;3.50;;;6.20;99.90;;;4.36;100.00;99716.47;4819369;29;20034;-77
2022/11/24 02:51:59;;;;;;;9.73;3.92;;;6.10;99.90;;;4.34;100.00;99721.25;4818840;29;20115;-77
2022/11/24 02:54:25;;;;;;;12.07;3.95;;;6.10;99.90;;;4.42;100.00;99739.97;4832895;29;21031;-77
2022/11/24 02:56:51;;;;;;;11.43;3.70;;;6.00;99.90;;;4.48;100.00;99730.25;4819190;29;20041;-76
2022/11/24 02:59:17;;;;;;;9.73;3.50;;;6.10;99.90;;;4.49;100.00;99733.78;4819142;29;20134;-76
2022/11/24 03:01:43;;;;;;;9.32;3.72;;;6.20;99.90;;;4.47;100.00;99734.81;4819054;29;20152;-76
2022/11/24 03:04:09;;;;;;;9.23;4.03;;;6.10;99.90;;;4.45;100.00;99742.28;4818551;29;20558;-77
2022/11/24 03:06:35;;;;;;;17.23;4.30;;;6.10;99.90;;;4.41;100.00;99737.50;4819137;29;20042;-77
2022/11/24 03:09:00;;;;;;;12.07;3.80;;;6.10;99.90;;;4.31;100.00;99740.53;4817745;29;20038;-76
2022/11/24 03:11:26;;;;;;;13.77;5.07;;;6.00;99.90;;;4.28;100.00;99740.94;4819109;29;20034;-76
2022/11/24 03:13:52;;;;;;;15.18;4.32;;;6.00;99.90;;;4.28;100.00;99749.03;4818782;29;20486;-76
2022/11/24 03:16:17;;;;;;;13.90;4.75;;;6.00;99.90;;;4.26;100.00;99748.41;4821390;29;20144;-76
2022/11/24 03:18:43;;;;;;;10.25;4.20;;;6.00;99.90;;;4.26;100.00;99748.41;4821787;29;20034;-76
2022/11/24 03:21:09;;;;;;;10.65;3.85;;;5.90;99.90;;;4.31;100.00;99751.34;4821962;29;20478;-76
2022/11/24 03:23:35;;;;;;;8.77;3.85;;;6.00;99.90;;;4.36;100.00;99751.56;4822046;29;20035;-76
2022/11/24 03:26:10;;;;;;;9.82;3.72;;;6.00;99.90;;;4.49;100.00;99768.88;4821866;29;20061;-77
2022/11/24 03:28:36;;;;;;;10.65;3.47;;;6.10;99.90;;;4.59;100.00;99763.97;4821944;29;20038;-76
2022/11/24 03:31:02;;;;;;;6.88;3.55;;;6.20;99.90;;;4.69;100.00;99766.31;4822014;29;20041;-76
2022/11/24 03:33:28;;;;;;;7.18;3.35;;;6.30;99.90;;;4.80;100.00;99773.03;4821454;29;20114;-77
2022/11/24 03:35:54;;;;;;;9.43;3.53;;;6.30;99.90;;;4.90;100.00;99777.00;4821151;29;20054;-76
2022/11/24 03:38:20;;;;;;;9.52;3.53;;;6.50;99.90;;;4.90;100.00;99773.50;4821791;29;20045;-77
2022/11/24 03:40:46;;;;;;;10.70;3.53;;;6.50;99.90;;;4.97;100.00;99768.94;4821709;29;20035;-77
2022/11/24 03:43:11;;;;;;;11.30;3.47;;;6.60;99.90;;;4.97;100.00;99768.94;4821420;29;20038;-77
2022/11/24 03:45:37;;;;;;;13.20;2.92;;;6.60;99.90;;;4.99;100.00;99763.34;4821588;29;20030;-76
2022/11/24 03:48:03;;;;;;;9.35;3.08;;;6.60;99.90;;;5.02;100.00;99777.28;4821543;29;20049;-77
2022/11/24 03:50:29;;;;;;;8.32;2.65;;;6.70;99.90;;;5.04;100.00;99772.53;4821389;29;20109;-77
2022/11/24 03:52:55;;;;;;;6.20;2.63;;;6.70;99.90;;;5.00;100.00;99765.00;4821099;29;20095;-77
2022/11/24 03:55:21;;;;;;;9.65;2.60;;;6.70;99.90;;;5.06;100.00;99771.47;4821826;29;20054;-77
2022/11/24 03:57:46;;;;;;;9.20;2.78;;;6.70;99.90;;;5.16;100.00;99774.63;4821055;29;20399;-77
2022/11/24 04:00:13;;;;;;;9.65;2.92;;;6.80;99.90;;;5.17;100.00;99779.84;4821390;29;20031;-77
2022/11/24 04:02:38;;;;;;;6.97;2.30;;;6.80;99.90;;;5.21;100.00;99776.72;4821003;29;20038;-76
2022/11/24 04:05:05;;;;;;;8.57;2.80;;;6.80;99.90;;;5.16;100.00;99780.03;4821100;29;20439;-77
2022/11/24 04:07:31;;;;;;;8.77;2.35;;;6.80;99.90;;;5.14;100.00;99777.53;4821374;29;20226;-76
2022/11/24 04:09:57;;;;;;;10.43;3.17;;;6.80;99.90;;;5.22;100.00;99784.63;4820900;29;20770;-76
2022/11/24 04:15:07;;;;;;;10.75;2.42;;;6.90;99.90;;;5.31;100.00;99788.84;4821090;29;20550;-76
2022/11/24 04:17:33;;;;;;;10.13;2.60;;;7.00;99.90;;;5.45;100.00;99803.25;4819553;29;20043;-76
2022/11/24 04:19:59;;;;;;;8.55;2.90;;;7.10;99.90;;;5.59;100.00;99809.53;4820977;29;20210;-77
2022/11/24 04:22:24;;;;;;;11.27;2.67;;;7.20;99.90;;;5.59;100.00;99806.81;4821507;29;20045;-76
2022/11/24 04:24:50;;;;;;;13.10;2.75;;;7.20;99.90;;;5.59;100.00;99804.09;4820895;29;20695;-76
2022/11/24 04:27:16;;;;;;;7.97;2.55;;;7.20;99.90;;;5.53;100.00;99812.19;4820064;29;20053;-76
2022/11/24 04:29:41;;;;;;;8.77;2.50;;;7.10;99.90;;;5.46;100.00;99812.16;4820908;29;20042;-76
2022/11/24 04:32:07;;;;;;;10.57;2.45;;;7.10;99.90;;;5.31;100.00;99794.25;4820580;29;20375;-77
2022/11/24 04:34:34;;;;;;;12.73;2.60;;;7.00;99.90;;;5.30;100.00;99807.97;4820663;29;20041;-76
2022/11/24 04:37:00;;;;;;;10.88;2.92;;;6.90;99.90;;;5.19;100.00;99817.50;4820970;29;20085;-77
2022/11/24 04:39:25;;;;;;;13.45;3.08;;;6.80;99.90;;;5.14;100.00;99818.09;4817279;29;20074;-76
2022/11/24 04:41:51;;;;;;;10.95;2.72;;;6.70;99.90;;;5.16;100.00;99818.72;4821314;29;20031;-77
2022/11/24 04:44:17;;;;;;;7.93;2.60;;;6.80;99.90;;;5.17;100.00;99814.16;4820806;29;20451;-76
2022/11/24 04:46:43;;;;;;;14.52;2.92;;;6.80;99.90;;;5.28;100.00;99827.09;4820824;29;20054;-76
2022/11/24 04:49:10;;;;;;;10.38;3.03;;;6.80;99.90;;;5.31;100.00;99832.13;4820371;29;20034;-75
2022/11/24 04:51:38;;;;;;;10.10;2.90;;;6.90;99.90;;;5.35;100.00;99837.13;4820948;29;20117;-76
2022/11/24 04:54:06;;;;;;;12.10;3.50;;;6.90;99.90;;;5.39;100.00;99833.78;4820800;29;20434;-76
2022/11/24 04:56:32;;;;;;;11.75;3.33;;;6.90;99.90;;;5.47;100.00;99846.31;4820164;29;20087;-75
2022/11/24 04:58:59;;;;;;;13.85;3.28;;;7.00;99.90;;;5.52;100.00;99843.00;4818822;29;20038;-76
2022/11/24 05:01:25;;;;;;;13.50;3.53;;;7.00;99.90;;;5.50;100.00;99848.59;4820988;29;20030;-76
2022/11/24 05:03:55;;;;;;;11.32;3.47;;;7.10;99.90;;;5.54;100.00;99849.03;4820475;29;20533;-76
2022/11/24 05:06:22;;;;;;;10.52;3.13;;;7.10;99.90;;;5.41;100.00;99847.94;4820569;29;20359;-76
2022/11/24 05:08:50;;;;;;;8.27;2.63;;;7.00;99.90;;;5.33;100.00;99850.84;4820666;29;20031;-77
2022/11/24 05:11:17;;;;;;;10.02;2.72;;;7.00;99.90;;;5.20;100.00;99848.91;4820464;29;20073;-75
2022/11/24 05:13:42;;;;;;;12.10;3.08;;;6.90;99.90;;;5.07;100.00;99849.69;4820638;29;20074;-76
2022/11/24 05:16:08;;;;;;;10.60;2.83;;;6.70;99.90;;;4.98;100.00;99853.59;4820618;29;20041;-77
2022/11/24 05:18:34;;;;;;;9.30;2.80;;;6.60;99.90;;;4.83;100.00;99851.00;4820647;29;20488;-77
2022/11/24 05:21:00;;;;;;;12.95;3.00;;;6.50;99.90;;;4.81;100.00;99856.59;4820378;29;20041;-76
2022/11/24 05:23:26;;;;;;;9.95;2.78;;;6.40;99.90;;;4.80;100.00;99854.09;4820288;29;20086;-76
2022/11/24 05:25:52;;;;;;;16.48;3.72;;;6.40;99.90;;;4.74;100.00;99859.25;4820371;29;20039;-77
2022/11/24 05:28:18;;;;;;;11.65;2.85;;;6.40;99.90;;;4.67;100.00;99858.38;4820339;29;20137;-76
2022/11/24 05:30:45;;;;;;;9.40;3.17;;;6.30;99.90;;;4.58;100.00;99862.28;4820348;29;20038;-76
2022/11/24 05:33:17;;;;;;;6.72;3.40;;;6.20;99.90;;;4.51;100.00;99869.47;4819983;29;20045;-77
2022/11/24 05:35:45;;;;;;;10.38;3.28;;;6.10;99.90;;;4.48;100.00;99876.13;4820067;29;20050;-77
2022/11/24 05:38:11;;;;;;;10.98;3.20;;;6.10;99.90;;;4.46;100.00;99872.78;4819642;29;20094;-77
2022/11/24 05:40:37;;;;;;;13.93;3.40;;;6.10;99.90;;;4.50;100.00;99867.81;4820036;29;20030;-76
2022/11/24 05:43:11;;;;;;;12.38;3.60;;;6.10;99.90;;;4.55;100.00;99876.19;4819852;29;20606;-77
2022/11/24 05:45:40;;;;;;;11.82;3.50;;;6.10;99.90;;;4.60;100.00;99884.53;4820094;29;20030;-76
2022/11/24 05:48:10;;;;;;;14.13;4.50;;;6.20;99.90;;;4.63;100.00;99888.69;4819807;29;20121;-77
2022/11/24 05:50:36;;;;;;;13.07;3.92;;;6.20;99.90;;;4.75;100.00;99887.13;4819831;29;20390;-77
2022/11/24 05:53:08;;;;;;;12.98;3.30;;;6.20;99.90;;;4.98;100.00;99889.56;4827891;29;20035;-76
2022/11/24 05:55:35;;;;;;;14.50;3.30;;;6.40;99.90;;;5.10;100.00;99889.00;4820122;29;20446;-76
2022/11/24 05:58:05;;;;;;;16.15;3.67;;;6.60;99.90;;;5.07;100.00;99889.41;4820046;29;20030;-77
2022/11/24 06:00:33;;;;;;;14.90;3.90;;;6.60;99.90;;;4.96;100.00;99891.63;4819897;29;20129;-76
2022/11/24 06:03:00;;;;;;;7.57;2.70;;;6.60;99.90;;;4.86;100.00;99897.38;4819787;29;20046;-77
2022/11/24 06:05:27;;;;;;;12.23;3.00;;;6.50;99.90;;;4.72;100.00;99901.84;4819526;29;20043;-76
2022/11/24 06:07:54;;;;;;;10.35;4.03;;;6.30;99.90;;;4.72;100.00;99909.97;4819672;29;20068;-77
2022/11/24 06:10:22;;;;;;;11.35;4.45;;;6.30;99.90;;;4.59;100.00;99910.69;4819961;29;20038;-76
2022/11/24 06:12:49;;;;;;;15.90;4.70;;;6.20;99.90;;;4.51;100.00;99907.28;4819500;29;20157;-76
2022/11/24 06:15:16;;;;;;;12.70;4.03;;;6.20;99.90;;;4.49;100.00;99915.59;4818982;29;20139;-76
2022/11/24 06:17:42;;;;;;;12.45;4.45;;;6.10;99.90;;;4.39;100.00;99910.53;4819564;29;20087;-76
2022/11/24 06:20:10;;;;;;;13.27;3.72;;;6.00;99.90;;;4.40;100.00;99911.38;4819430;29;20042;-76
2022/11/24 06:22:36;;;;;;;12.20;3.35;;;6.00;99.90;;;4.36;100.00;99918.16;4823535;29;20042;-76
2022/11/24 06:25:03;;;;;;;10.40;3.80;;;6.00;99.90;;;4.24;100.00;99921.41;4817906;29;20042;-76
2022/11/24 06:27:32;;;;;;;10.50;3.35;;;5.90;99.90;;;4.10;100.00;99908.78;4818044;29;20382;-78
2022/11/24 06:29:58;;;;;;;11.98;3.75;;;5.80;99.90;;;4.06;100.00;99923.69;4817735;29;20045;-77
2022/11/24 06:32:23;;;;;;;14.02;4.50;;;5.70;99.90;;;3.97;100.00;99922.97;4823148;29;20056;-76
2022/11/24 06:34:49;;;;;;;15.68;4.18;;;5.60;99.90;;;3.97;100.00;99920.28;4819459;29;20448;-75
2022/11/24 06:37:15;;;;;;;16.17;4.47;;;5.60;99.90;;;4.05;100.00;99919.34;4823834;29;20506;-77
2022/11/24 06:39:41;;;;;;;12.60;4.68;;;5.70;99.90;;;4.02;100.00;99931.38;4819379;29;20506;-77
2022/11/24 06:42:07;;;;;;;21.77;5.60;;;5.70;99.90;;;3.96;100.00;99929.41;4818889;29;20474;-77
2022/11/24 06:44:33;;;;;;;15.02;5.18;;;5.60;99.90;;;3.96;100.00;99927.56;4819088;29;20039;-77
2022/11/24 06:46:59;;;;;;;16.38;5.32;;;5.60;99.90;;;4.00;100.00;99933.44;4818698;29;20049;-76
2022/11/24 06:49:24;;;;;;;20.98;5.78;;;5.60;99.90;;;4.09;100.00;99931.41;4821774;29;20050;-77
2022/11/24 06:51:53;;;;;;;12.70;5.32;;;5.70;99.90;;;4.03;100.00;99925.75;4822056;29;20050;-77
2022/11/24 06:54:22;;;;;;;14.88;4.80;;;5.60;99.90;;;3.99;100.00;99923.66;4822587;29;20053;-75
2022/11/24 06:56:48;;;;;;;24.40;5.22;;;5.60;99.90;;;3.96;100.00;99921.31;4820904;29;20034;-75
2022/11/24 06:59:18;;;;;;;12.13;4.90;;;5.60;99.90;;;4.01;100.00;99937.78;4829315;29;20438;-75
2022/11/24 07:01:44;;;;;;;16.98;5.13;;;5.70;99.90;;;4.12;100.00;99936.47;4822454;29;20036;-76
2022/11/24 07:04:10;;;;;;;13.05;4.82;;;5.70;99.90;;;4.17;100.00;99940.22;4819892;29;20035;-75
2022/11/24 07:06:36;;;;;;;15.68;4.75;;;5.80;99.90;;;4.18;100.00;99947.31;4821558;29;20034;-76
2022/11/24 07:09:02;;;;;;;12.63;4.40;;;5.80;99.90;;;4.29;100.00;99955.94;4826209;29;20070;-76
2022/11/24 07:11:28;;;;;;;10.07;4.13;;;5.80;99.90;;;4.29;100.00;99948.66;4821219;29;20474;-76
2022/11/24 07:13:53;;;;;;;19.70;4.45;;;5.90;99.90;;;4.25;100.00;99928.47;4824541;29;20051;-77
2022/11/24 07:16:24;;;;;;;15.75;4.25;;;5.90;99.90;;;4.36;100.00;99950.59;4821483;29;20037;-75
2022/11/24 07:18:52;;;;;;;15.40;4.88;;;5.90;99.90;;;4.36;100.00;99956.84;4821314;29;20034;-76
2022/11/24 07:21:20;;;;;;;18.20;4.45;;;5.90;99.90;;;4.27;100.00;99955.31;4821670;29;20107;-76
2022/11/24 07:23:50;;;;;;;;;;;5.90;99.90;;;4.23;100.00;99962.09;4805129;29;20044;-76
2022/11/24 07:26:17;;;;;;;11.57;4.05;;;5.90;99.90;;;4.21;100.00;99956.03;4823932;29;19916;-76
2022/11/24 07:28:43;;;;;;;11.15;4.35;;;5.80;99.90;;;4.30;100.00;99971.94;4824616;29;20042;-75
2022/11/24 07:31:13;;;;;;;14.90;5.22;;;5.90;99.90;;;4.31;100.00;99975.50;4821564;29;20070;-76
2022/11/24 07:33:40;;;;;;;13.45;4.13;;;5.90;99.90;;;4.36;100.00;99980.28;4821459;29;20031;-75
2022/11/24 07:36:07;;;;;;;14.38;4.30;;;6.00;99.90;;;4.39;100.00;99979.94;4821225;29;20153;-75
2022/11/24 07:38:34;;;;;;;16.48;4.38;;;6.00;99.90;;;4.51;100.00;99988.34;4821508;29;20039;-76
2022/11/24 07:41:06;;;;;;;12.32;4.20;;;6.10;99.90;;;4.55;100.00;99989.63;4823474;29;20385;-76
2022/11/24 07:43:35;;;;;;;14.05;3.83;;;6.20;99.90;;;4.56;100.00;99981.31;4830450;29;20071;-75
2022/11/24 07:46:02;;;;;;;11.05;3.92;;;6.20;99.90;;;4.72;100.00;99990.22;4823836;29;20054;-76
2022/11/24 07:48:27;;;;;;;14.48;3.97;;;6.30;99.90;;;4.80;100.00;100005.47;4821974;29;20030;-78
2022/11/24 07:50:53;;;;;;;13.77;3.80;;;6.40;99.90;;;4.86;100.00;100004.66;4827480;29;21797;-78
2022/11/24 07:53:19;;;;;;;14.48;3.53;;;6.50;99.90;;;4.92;100.00;100003.88;4821853;29;20407;-77
2022/11/24 07:55:59;;;;;;;11.98;4.03;;;6.50;99.90;;;5.05;100.00;100013.97;4821799;29;20087;-76
2022/11/24 07:58:27;;;;;;;9.43;3.10;;;6.60;99.90;;;5.09;100.00;100022.53;4821904;29;20030;-77
2022/11/24 08:00:54;;;;;;;17.92;3.83;;;6.70;99.90;;;5.03;100.00;100019.56;4821344;29;20046;-78
2022/11/24 08:03:20;;;;;;;10.63;3.45;;;6.70;99.90;;;5.04;100.00;100013.16;4832797;29;20042;-77
2022/11/24 08:05:59;;;;;;;11.65;3.90;;;6.70;99.90;;;5.14;100.00;100030.91;4821850;29;20038;-77
2022/11/24 08:08:25;;;;;;;11.73;3.38;;;6.70;99.90;;;5.16;100.00;100026.94;4827647;29;20038;-77
2022/11/24 08:10:51;;;;;;;15.73;4.07;;;6.80;99.90;;;5.26;100.00;100023.91;4834897;29;20049;-77
2022/11/24 08:13:18;;;;;;;9.98;2.95;;;6.80;99.90;;;5.41;100.00;100025.66;4831700;29;20510;-77
2022/11/24 08:15:45;;;;;;;14.73;3.30;;;7.00;99.90;;;5.54;100.00;100016.81;4825318;29;20078;-77
2022/11/24 08:18:11;;;;;;;10.73;3.80;;;7.10;99.90;;;5.68;100.00;100021.25;4830539;29;20285;-76
2022/11/24 08:20:37;;;;;;;11.48;3.60;;;7.20;99.90;;;5.77;100.00;100024.63;4833617;29;20502;-77
2022/11/24 08:23:03;;;;;;;11.52;3.25;;;7.30;99.90;;;5.83;100.00;100029.22;4821204;29;20042;-78
2022/11/24 08:25:31;;;;;;;11.48;3.60;;;7.40;99.90;;;5.85;100.00;100035.31;4828198;29;20041;-77
2022/11/24 08:27:58;;;;;;;10.18;3.45;;;7.40;99.90;;;5.93;100.00;100036.16;4824017;29;20065;-75
2022/11/24 08:30:24;;;;;;;15.65;4.70;;;7.50;99.90;;;6.09;100.00;100038.53;4820514;29;20053;-76
2022/11/24 08:32:50;;;;;;;19.35;4.15;;;7.60;99.90;;;6.23;100.00;100047.56;4820943;29;20035;-76
2022/11/24 08:35:16;;;;;;;19.20;4.18;;;7.80;99.90;;;6.39;100.00;100061.78;4820934;29;20447;-76
2022/11/24 08:37:42;;;;;;;14.07;3.63;;;7.90;99.90;;;6.54;100.00;100054.34;4826923;29;20506;-75
2022/11/24 08:40:08;;;;;;;12.07;3.25;;;8.00;99.90;;;6.65;100.00;100054.78;4838266;29;20240;-76
2022/11/24 08:42:34;;;;;;;12.57;3.63;;;8.20;99.90;;;6.75;100.00;100053.31;4821079;29;20087;-75
2022/11/24 08:45:00;;;;;;;13.02;3.47;;;8.30;99.90;;;6.74;100.00;100062.50;4820763;29;20414;-77
2022/11/24 08:47:25;;;;;;;11.77;3.33;;;8.30;99.90;;;6.66;100.00;100070.84;4820727;29;20049;-77
2022/11/24 08:49:51;;;;;;;11.98;2.90;;;8.30;99.90;;;6.76;100.00;100073.97;4849671;29;20061;-78
2022/11/24 08:52:17;;;;;;;13.10;3.67;;;8.30;99.90;;;6.83;100.00;100081.28;4831423;29;20056;-76
2022/11/24 08:54:43;;;;;;;12.68;3.40;;;8.40;99.90;;;6.94;100.00;100080.69;4826736;29;20037;-76
2022/11/24 08:57:13;;;;;;;10.40;3.05;;;8.50;99.90;;;7.02;100.00;100088.63;4816916;29;20042;-76
2022/11/24 08:59:39;;;;;;;10.07;3.58;;;8.50;99.90;;;7.10;100.00;100084.88;4819439;29;20277;-76
2022/11/24 09:02:10;;;;;;;12.57;2.97;;;8.60;99.90;;;7.25;100.00;100090.09;4824976;29;20042;-76
2022/11/24 09:04:36;;;;;;;9.48;3.65;;;8.80;99.90;;;7.37;100.00;100106.59;4819682;29;20462;-76
2022/11/24 09:07:02;;;;;;;14.27;3.35;;;8.90;99.90;;;7.42;100.00;100097.78;4820021;29;20073;-77
2022/11/24 09:09:28;;;;;;;8.48;2.83;;;8.90;99.90;;;7.51;100.00;100107.41;4818934;29;20473;-77
2022/11/24 09:11:54;;;;;;;14.32;3.75;;;9.10;99.90;;;7.45;100.00;100108.25;4820317;29;20122;-76
2022/11/24 09:14:20;;;;;;;13.23;3.85;;;9.10;99.90;;;7.42;100.00;100114.09;4819950;29;20027;-76
2022/11/24 09:16:45;;;;;;;23.85;4.63;;;9.00;99.90;;;7.32;100.00;100117.25;4819904;29;20043;-76
2022/11/24 09:19:11;;;;;;;14.23;3.53;;;8.90;99.90;;;7.28;100.00;100103.25;4818885;29;20041;-77
2022/11/24 09:21:37;;;;;;;11.90;3.30;;;8.80;99.90;;;7.31;100.00;100110.97;4821521;29;20140;-76
2022/11/24 09:24:06;;;;;;;11.88;3.10;;;8.90;99.90;;;7.29;100.00;100109.50;4821750;29;20690;-77
2022/11/24 09:26:35;;;;;;;8.25;2.47;;;8.80;99.90;;;7.29;100.00;100113.06;4819743;29;20132;-76
2022/11/24 09:29:05;;;;;;;16.27;2.90;;;8.90;99.90;;;7.54;100.00;100115.13;4819950;29;20042;-76
2022/11/24 09:31:34;;;;;;;7.80;2.47;;;9.30;99.90;;;8.04;100.00;100113.81;4821187;29;20034;-76
2022/11/24 09:34:03;;;;;;;12.85;2.85;;;10.30;99.90;;;8.62;100.00;100121.16;4838094;29;20027;-76
2022/11/24 09:36:30;;;;;;;12.32;2.63;;;11.30;99.90;;;9.24;91.21;100121.59;4827291;29;20133;-76
2022/11/24 09:38:57;;;;;;;10.75;2.47;;;12.30;99.90;;;9.30;90.20;100115.28;4819226;29;20038;-76
2022/11/24 09:41:48;;;;;;;11.25;2.65;;;12.30;99.90;;;9.07;90.69;100116.69;4822586;29;21130;-76
2022/11/24 09:44:36;;;;;;;10.05;2.60;;;11.80;99.90;;;10.19;83.92;100116.94;4820699;29;20577;-76
2022/11/24 09:47:53;;;;;;;10.25;2.20;;;12.00;99.90;;;11.79;73.22;100117.59;4819532;29;20056;-76
2022/11/24 09:50:26;;;;;;;11.18;2.63;;;13.20;99.90;;;11.87;70.84;100121.88;4820742;29;20361;-76
2022/11/24 09:53:36;;;;;;;10.52;3.33;;;13.80;99.90;;;10.91;74.78;100123.63;4819595;29;20050;-77
2022/11/24 09:56:27;;;;;;;10.38;2.05;;;13.00;99.90;;;11.13;76.67;100126.66;4818941;29;20129;-77
2022/11/24 09:58:59;;;;;;;8.18;1.95;;;12.50;99.90;;;12.62;66.70;100124.84;4829275;29;20555;-78
2022/11/24 10:01:37;;;;;;;10.15;1.95;;;13.40;99.90;;;14.42;58.75;100130.75;4832475;29;20042;-76
2022/11/24 10:04:35;;;;;;;6.85;1.70;;;14.50;99.90;;;15.48;53.68;100127.75;4832883;29;20561;-76
2022/11/24 10:07:26;;;;;;;10.98;1.95;;;;;;;15.68;52.22;100127.94;4830376;29;20042;-74
2022/11/24 10:10:24;;;;;;;6.35;1.92;;;15.70;99.90;;;15.10;53.41;100142.25;4829863;29;20070;-76
2022/11/24 10:13:25;;;;;;;6.85;2.03;;;16.80;97.60;;;14.93;54.22;100138.81;4831283;29;20049;-77
2022/11/24 10:16:07;;;;;;;8.15;1.85;;;16.10;98.50;;;15.95;51.59;100135.28;4831292;29;20046;-76
2022/11/24 10:19:11;;;;;;;8.35;2.00;;;;;;;15.14;52.03;100155.50;4827611;29;20672;-75
2022/11/24 10:22:06;;;;;;;7.70;2.30;;;16.50;98.30;;;15.10;53.18;100127.72;4826774;29;20525;-77
2022/11/24 10:25:03;;;;;;;6.43;1.95;;;16.50;96.60;;;16.38;48.99;100145.41;4821288;29;20042;-77
2022/11/24 10:27:47;;;;;;;7.45;2.05;;;;;;;16.94;47.86;100146.72;4823052;29;20030;-76
2022/11/24 10:30:18;;;;;;;9.30;1.83;;;;;;;17.14;46.64;100147.88;4824890;29;20042;-77
2022/11/24 10:33:13;;;;;;;8.13;2.00;;;;;;;16.19;48.91;100167.91;4823366;29;20070;-77
2022/11/24 10:35:52;;;;;;;10.05;1.90;;;;;;;16.30;48.83;100160.50;4822216;29;20576;-77